Time;durP1;ratioP1;P1;durP2;ratioP2;P2;SDS_P1;SDS_P2;PMS_P1;PMS_P2;Temp;Humidity;BMP_temperature;BMP_pressure;BME280_temperature;BME280_humidity;BME280_pressure;Samples;Min_cycle;Max_cycle;Signal;HPM_P1;HPM_P2
2023/09/20 00:00:11;;;;;;;12.02;3.00;;;15.60;99.90;;;;;;5046020;28;20063;-77
2023/09/20 00:02:39;;;;;;;9.40;3.28;;;15.60;99.90;;;;;;5027741;28;20074;-77
2023/09/20 00:05:05;;;;;;;7.07;3.22;;;15.60;99.90;;;;;;5056383;28;20037;-77
2023/09/20 00:07:31;;;;;;;9.43;3.10;;;15.60;99.90;;;;;;5042614;28;20044;-77
2023/09/20 00:09:57;;;;;;;5.45;3.00;;;15.60;99.90;;;;;;5049911;28;20082;-77
2023/09/20 00:12:22;;;;;;;9.15;3.47;;;15.60;99.90;;;;;;5048429;28;20514;-77
2023/09/20 00:14:48;;;;;;;7.22;2.95;;;15.60;99.90;;;;;;5055224;28;20032;-77
2023/09/20 00:17:14;;;;;;;8.90;3.50;;;15.60;99.90;;;;;;5039818;28;20051;-77
2023/09/20 00:19:42;;;;;;;8.63;3.20;;;15.60;99.90;;;;;;5052075;28;20036;-77
2023/09/20 00:22:10;;;;;;;6.30;3.22;;;15.60;99.90;;;;;;5037292;28;20051;-76
2023/09/20 00:24:36;;;;;;;9.10;3.13;;;15.60;99.90;;;;;;5042696;28;20044;-77
2023/09/20 00:27:02;;;;;;;5.82;3.00;;;15.60;99.90;;;;;;5037402;28;20036;-77
2023/09/20 00:29:28;;;;;;;10.30;3.30;;;15.60;99.90;;;;;;5053098;28;20036;-77
2023/09/20 00:31:53;;;;;;;9.27;3.50;;;15.60;99.90;;;;;;5045506;28;20055;-78
2023/09/20 00:34:19;;;;;;;9.13;2.72;;;15.70;99.90;;;;;;5031443;28;20036;-78
2023/09/20 00:36:45;;;;;;;8.15;3.25;;;15.70;99.90;;;;;;5033474;28;20094;-77
2023/09/20 00:39:10;;;;;;;8.70;3.00;;;15.70;99.90;;;;;;5033916;28;20040;-77
2023/09/20 00:41:36;;;;;;;8.48;2.67;;;15.70;99.90;;;;;;5045190;28;20086;-77
2023/09/20 00:44:02;;;;;;;10.52;2.55;;;15.70;99.90;;;;;;5047994;28;20032;-77
2023/09/20 00:46:31;;;;;;;9.07;3.42;;;15.70;99.90;;;;;;5052461;28;20039;-77
2023/09/20 00:48:57;;;;;;;5.05;2.75;;;15.70;99.90;;;;;;5035687;28;20438;-76
2023/09/20 00:51:24;;;;;;;7.63;3.40;;;15.70;99.90;;;;;;5047347;28;20044;-77
2023/09/20 00:53:57;;;;;;;8.73;2.63;;;15.70;99.90;;;;;;5042971;28;20037;-76
2023/09/20 00:56:23;;;;;;;7.30;2.90;;;15.80;99.90;;;;;;5044677;28;20150;-77
2023/09/20 00:58:50;;;;;;;10.18;3.10;;;15.80;99.90;;;;;;5045577;28;20399;-76
2023/09/20 01:01:16;;;;;;;5.50;2.22;;;15.80;99.90;;;;;;5051247;28;20405;-77
2023/09/20 01:03:45;;;;;;;9.50;3.15;;;15.90;99.90;;;;;;5045474;28;20033;-77
2023/09/20 01:06:15;;;;;;;11.10;4.53;;;15.90;99.90;;;;;;5053075;28;20080;-77
2023/09/20 01:08:41;;;;;;;6.05;2.50;;;15.90;99.90;;;;;;5047130;28;20619;-77
2023/09/20 01:11:07;;;;;;;8.65;2.50;;;16.00;99.90;;;;;;5051236;28;20079;-77
2023/09/20 01:13:33;;;;;;;4.53;2.40;;;16.00;99.90;;;;;;5034779;28;20044;-77
2023/09/20 01:16:01;;;;;;;8.85;2.40;;;16.00;99.90;;;;;;5035119;28;20044;-77
2023/09/20 01:18:28;;;;;;;9.55;2.33;;;16.00;99.90;;;;;;5030148;28;20426;-78
2023/09/20 01:20:54;;;;;;;6.57;2.30;;;16.00;99.90;;;;;;5031294;28;20033;-77
2023/09/20 01:23:20;;;;;;;7.35;2.17;;;16.10;99.90;;;;;;5043259;28;21018;-77
2023/09/20 01:25:46;;;;;;;13.35;3.10;;;16.20;99.90;;;;;;5045127;28;20052;-77
2023/09/20 01:28:13;;;;;;;5.32;2.13;;;16.20;99.90;;;;;;5046626;28;20048;-77
2023/09/20 01:30:41;;;;;;;5.78;2.10;;;16.20;99.90;;;;;;5042241;28;20041;-77
2023/09/20 01:33:08;;;;;;;11.45;3.15;;;16.20;99.90;;;;;;5064724;28;20059;-77
2023/09/20 01:35:35;;;;;;;6.07;2.25;;;16.30;99.90;;;;;;5042880;28;20044;-77
2023/09/20 01:38:06;;;;;;;11.95;3.03;;;16.30;99.90;;;;;;5028759;28;20041;-77
2023/09/20 01:40:33;;;;;;;7.60;2.50;;;16.20;99.90;;;;;;5033110;28;20076;-77
2023/09/20 01:43:08;;;;;;;6.18;2.20;;;16.30;99.90;;;;;;5031092;28;20450;-77
2023/09/20 01:45:36;;;;;;;9.43;3.25;;;16.30;99.90;;;;;;5047732;28;20519;-77
2023/09/20 01:48:06;;;;;;;6.93;2.40;;;16.30;99.90;;;;;;5041178;28;20119;-77
2023/09/20 01:50:32;;;;;;;8.70;2.40;;;16.30;99.90;;;;;;5048026;28;20044;-78
2023/09/20 01:52:59;;;;;;;8.00;2.33;;;16.30;99.90;;;;;;5051107;28;20277;-77
2023/09/20 01:55:27;;;;;;;7.97;2.17;;;16.30;99.90;;;;;;5051215;28;20624;-77
2023/09/20 01:57:59;;;;;;;6.35;2.00;;;16.30;99.90;;;;;;5050480;28;20123;-77
2023/09/20 02:00:33;;;;;;;5.35;2.05;;;16.30;99.90;;;;;;5024672;28;20562;-77
2023/09/20 02:03:13;;;;;;;8.38;2.17;;;16.40;99.90;;;;;;5030160;28;20032;-78
2023/09/20 02:05:40;;;;;;;6.50;1.83;;;16.40;99.90;;;;;;5046888;28;20036;-78
2023/09/20 02:08:08;;;;;;;9.05;2.20;;;16.40;99.90;;;;;;5048094;28;20079;-77
2023/09/20 02:10:34;;;;;;;5.95;2.10;;;16.40;99.90;;;;;;5046386;28;20037;-77
2023/09/20 02:13:00;;;;;;;8.27;2.60;;;16.40;99.90;;;;;;5033348;28;20085;-78
2023/09/20 02:15:34;;;;;;;6.00;2.47;;;16.40;99.90;;;;;;5054306;28;20048;-77
2023/09/20 02:18:05;;;;;;;5.90;1.75;;;16.40;99.90;;;;;;5050076;28;20053;-78
2023/09/20 02:20:36;;;;;;;7.15;2.13;;;16.60;99.90;;;;;;5041334;28;20045;-77
2023/09/20 02:23:03;;;;;;;5.70;2.17;;;16.40;99.90;;;;;;5034445;28;20101;-77
2023/09/20 02:25:29;;;;;;;5.13;1.85;;;16.50;99.90;;;;;;5057623;28;20040;-77
2023/09/20 02:27:57;;;;;;;4.45;1.90;;;16.50;99.90;;;;;;5031764;28;20036;-77
2023/09/20 02:30:24;;;;;;;5.65;2.20;;;16.50;99.90;;;;;;5041195;28;20040;-77
2023/09/20 02:32:55;;;;;;;4.22;2.15;;;16.50;99.90;;;;;;5047001;28;20746;-77
2023/09/20 02:35:21;;;;;;;4.25;1.92;;;16.50;99.90;;;;;;5064819;28;20056;-76
2023/09/20 02:37:47;;;;;;;7.07;2.20;;;16.50;99.90;;;;;;5059054;28;20398;-77
2023/09/20 02:40:14;;;;;;;11.10;2.30;;;16.50;99.90;;;;;;5029400;28;20119;-77
2023/09/20 02:42:41;;;;;;;6.95;1.90;;;16.50;99.90;;;;;;5050762;28;20093;-77
2023/09/20 02:45:07;;;;;;;5.75;2.22;;;16.50;99.90;;;;;;5033443;28;20462;-77
2023/09/20 02:47:33;;;;;;;5.47;2.30;;;16.60;99.90;;;;;;5034284;28;20040;-77
2023/09/20 02:49:59;;;;;;;6.40;1.83;;;16.60;99.90;;;;;;5031160;28;20044;-77
2023/09/20 02:52:25;;;;;;;4.50;2.25;;;16.60;99.90;;;;;;5044818;28;20048;-77
2023/09/20 02:54:51;;;;;;;5.38;1.88;;;16.60;99.90;;;;;;5042511;28;20045;-77
2023/09/20 02:57:17;;;;;;;5.75;2.42;;;16.60;99.90;;;;;;5050377;28;20049;-76
2023/09/20 02:59:43;;;;;;;5.50;2.20;;;16.60;99.90;;;;;;5034688;28;20036;-76
2023/09/20 03:02:10;;;;;;;7.18;1.90;;;16.40;99.90;;;;;;5034224;28;20044;-77
2023/09/20 03:04:37;;;;;;;7.00;2.40;;;16.40;99.90;;;;;;5031598;28;20602;-77
2023/09/20 03:07:06;;;;;;;5.28;2.05;;;16.50;99.90;;;;;;5059722;28;20042;-77
2023/09/20 03:09:36;;;;;;;4.40;1.88;;;16.50;99.90;;;;;;5028597;28;20128;-77
2023/09/20 03:12:05;;;;;;;7.35;1.90;;;16.50;99.90;;;;;;5041434;28;20041;-77
2023/09/20 03:14:31;;;;;;;5.25;2.03;;;16.50;99.90;;;;;;5044844;28;20040;-77
2023/09/20 03:16:57;;;;;;;7.60;2.10;;;16.60;99.90;;;;;;5047517;28;20098;-77
2023/09/20 03:19:24;;;;;;;3.35;2.22;;;16.50;99.90;;;;;;5041313;28;20445;-77
2023/09/20 03:21:50;;;;;;;4.22;1.80;;;16.50;99.90;;;;;;5031944;28;20047;-77
2023/09/20 03:24:15;;;;;;;8.80;1.80;;;16.50;99.90;;;;;;5046161;28;20106;-77
2023/09/20 03:26:42;;;;;;;7.82;2.42;;;16.50;99.90;;;;;;5046940;28;20040;-77
2023/09/20 03:29:08;;;;;;;5.22;2.50;;;16.50;99.90;;;;;;5026365;28;20044;-77
2023/09/20 03:31:34;;;;;;;6.22;2.70;;;16.50;99.90;;;;;;5048632;28;20047;-77
2023/09/20 03:34:00;;;;;;;7.82;2.05;;;16.40;99.90;;;;;;5044117;28;20102;-76
2023/09/20 03:36:26;;;;;;;7.93;2.35;;;16.40;99.90;;;;;;5049124;28;20441;-78
2023/09/20 03:38:55;;;;;;;8.63;3.00;;;16.50;99.90;;;;;;5061662;28;20078;-78
2023/09/20 03:41:20;;;;;;;5.85;2.33;;;16.50;99.90;;;;;;5031958;28;20523;-77
2023/09/20 03:43:47;;;;;;;7.47;2.00;;;16.50;99.90;;;;;;5047746;28;20055;-77
2023/09/20 03:46:13;;;;;;;9.73;2.53;;;16.50;99.90;;;;;;5044251;28;20041;-77
2023/09/20 03:48:39;;;;;;;4.90;2.50;;;16.50;99.90;;;;;;5046796;28;20051;-77
2023/09/20 03:51:04;;;;;;;7.90;2.40;;;16.50;99.90;;;;;;5033678;28;20040;-77
2023/09/20 03:53:30;;;;;;;4.00;2.08;;;16.40;99.90;;;;;;5068824;28;20032;-77
2023/09/20 03:55:56;;;;;;;6.60;2.28;;;16.30;99.90;;;;;;5046348;28;20395;-77
2023/09/20 03:58:21;;;;;;;13.20;2.80;;;16.30;99.90;;;;;;5033188;28;20051;-77
2023/09/20 04:00:48;;;;;;;7.32;2.17;;;16.20;99.90;;;;;;5047143;28;20071;-77
2023/09/20 04:03:14;;;;;;;9.90;2.72;;;16.10;99.90;;;;;;5051261;28;20115;-77
2023/09/20 04:05:40;;;;;;;5.93;2.40;;;16.10;99.90;;;;;;5047122;28;20090;-77
2023/09/20 04:08:06;;;;;;;7.10;2.50;;;16.10;99.90;;;;;;5034844;28;20599;-77
2023/09/20 04:10:33;;;;;;;5.95;2.28;;;16.00;99.90;;;;;;5048965;28;20050;-76
2023/09/20 04:12:59;;;;;;;6.78;2.33;;;15.90;99.90;;;;;;5049988;28;20456;-77
2023/09/20 04:15:25;;;;;;;7.38;2.33;;;15.90;99.90;;;;;;5044203;28;20044;-77
2023/09/20 04:17:51;;;;;;;6.22;2.30;;;15.80;99.90;;;;;;5046427;28;20052;-77
2023/09/20 04:20:20;;;;;;;11.02;2.08;;;15.80;99.90;;;;;;5030165;28;20092;-76
2023/09/20 04:22:47;;;;;;;6.43;2.22;;;15.70;99.90;;;;;;5049668;28;20056;-78
2023/09/20 04:25:14;;;;;;;4.93;1.80;;;15.70;99.90;;;;;;5031475;28;20071;-77
2023/09/20 04:27:41;;;;;;;5.55;2.08;;;15.60;99.90;;;;;;5048996;28;20040;-77
2023/09/20 04:30:08;;;;;;;5.65;2.00;;;15.60;99.90;;;;;;5046809;28;20494;-78
2023/09/20 04:32:35;;;;;;;8.18;2.10;;;15.50;99.90;;;;;;5040927;28;20060;-77
2023/09/20 04:35:02;;;;;;;4.53;2.10;;;15.60;99.90;;;;;;5031255;28;20048;-78
2023/09/20 04:37:28;;;;;;;4.28;2.17;;;15.60;99.90;;;;;;5053697;28;20043;-77
2023/09/20 04:39:54;;;;;;;7.30;2.13;;;15.50;99.90;;;;;;5051799;28;20047;-77
2023/09/20 04:42:20;;;;;;;6.85;2.30;;;15.50;99.90;;;;;;5046519;28;20053;-77
2023/09/20 04:44:46;;;;;;;5.03;2.10;;;15.50;99.90;;;;;;5055279;28;20072;-78
2023/09/20 04:47:14;;;;;;;12.13;3.05;;;15.50;99.90;;;;;;5049362;28;20094;-77
2023/09/20 04:49:40;;;;;;;6.53;3.00;;;15.60;99.90;;;;;;5029458;28;20053;-76
2023/09/20 04:52:09;;;;;;;6.57;2.55;;;15.70;99.90;;;;;;5022368;28;20186;-77
2023/09/20 04:54:35;;;;;;;11.15;2.78;;;15.70;99.90;;;;;;5047763;28;20055;-77
2023/09/20 04:57:01;;;;;;;10.60;3.03;;;15.80;99.90;;;;;;5046071;28;20407;-77
2023/09/20 04:59:29;;;;;;;7.28;2.20;;;15.70;99.90;;;;;;5046239;28;20041;-77
2023/09/20 05:01:55;;;;;;;8.88;2.33;;;15.60;99.90;;;;;;5045796;28;20094;-77
2023/09/20 05:04:20;;;;;;;5.40;2.10;;;15.60;99.90;;;;;;5043026;28;20052;-77
2023/09/20 05:06:46;;;;;;;9.18;2.92;;;15.60;99.90;;;;;;5016148;28;20041;-77
2023/09/20 05:09:12;;;;;;;8.05;2.50;;;15.50;99.90;;;;;;5023779;28;20041;-77
2023/09/20 05:11:38;;;;;;;9.32;2.42;;;15.40;99.90;;;;;;5041849;28;20049;-77
2023/09/20 05:14:07;;;;;;;5.97;2.35;;;15.40;99.90;;;;;;5043770;28;20392;-78
2023/09/20 05:16:33;;;;;;;9.13;2.38;;;15.30;99.90;;;;;;5023446;28;20076;-77
2023/09/20 05:18:59;;;;;;;8.93;2.70;;;15.30;99.90;;;;;;5049982;28;20121;-77
2023/09/20 05:21:25;;;;;;;8.25;2.50;;;15.20;99.90;;;;;;5032493;28;20108;-77
2023/09/20 05:23:50;;;;;;;5.30;2.20;;;15.20;99.90;;;;;;5048893;28;20114;-77
2023/09/20 05:26:18;;;;;;;8.23;2.80;;;15.20;99.90;;;;;;5021896;28;20068;-77
2023/09/20 05:28:46;;;;;;;8.13;2.72;;;15.10;99.90;;;;;;5047323;28;20066;-77
2023/09/20 05:31:13;;;;;;;6.50;2.35;;;15.10;99.90;;;;;;5029768;28;20048;-77
2023/09/20 05:33:39;;;;;;;7.88;2.97;;;15.10;99.90;;;;;;5036568;28;20048;-77
2023/09/20 05:36:05;;;;;;;5.95;2.28;;;15.10;99.90;;;;;;5042879;28;20040;-77
2023/09/20 05:38:31;;;;;;;7.57;2.03;;;15.10;99.90;;;;;;5025041;28;20059;-77
2023/09/20 05:40:56;;;;;;;7.18;2.63;;;15.20;99.90;;;;;;5044195;28;20052;-77
2023/09/20 05:43:22;;;;;;;4.22;1.90;;;15.10;99.90;;;;;;5065313;28;20124;-77
2023/09/20 05:45:48;;;;;;;5.03;2.45;;;15.10;99.90;;;;;;5019460;28;20040;-77
2023/09/20 05:48:13;;;;;;;5.50;2.15;;;15.20;99.90;;;;;;5029690;28;20051;-76
2023/09/20 05:50:40;;;;;;;7.30;2.17;;;15.10;99.90;;;;;;5043545;28;20499;-77
2023/09/20 05:53:07;;;;;;;9.43;2.80;;;15.20;99.90;;;;;;5058229;28;20287;-77
2023/09/20 05:55:40;;;;;;;9.13;2.15;;;15.20;99.90;;;;;;5047519;28;20868;-77
2023/09/20 05:58:07;;;;;;;5.50;2.08;;;15.30;99.90;;;;;;5040200;28;20544;-77
2023/09/20 06:00:35;;;;;;;4.57;2.00;;;15.40;99.90;;;;;;5040590;28;20047;-80
2023/09/20 06:03:03;;;;;;;4.30;2.50;;;15.50;99.90;;;;;;5037372;28;20045;-82
2023/09/20 06:05:31;;;;;;;8.35;2.10;;;15.60;99.90;;;;;;5047980;28;20043;-82
2023/09/20 06:07:57;;;;;;;6.90;2.28;;;15.70;99.90;;;;;;5068416;28;20045;-82
2023/09/20 06:10:23;;;;;;;4.35;1.80;;;15.80;99.90;;;;;;5035544;28;20041;-82
2023/09/20 06:12:53;;;;;;;4.30;1.80;;;15.80;99.90;;;;;;5052980;28;20376;-82
2023/09/20 06:15:22;;;;;;;6.53;2.20;;;15.90;99.90;;;;;;5045115;28;20044;-80
2023/09/20 06:17:48;;;;;;;5.47;2.00;;;15.90;99.90;;;;;;5032341;28;20040;-80
2023/09/20 06:20:21;;;;;;;6.43;1.90;;;15.90;99.90;;;;;;5044258;28;20452;-80
2023/09/20 06:22:50;;;;;;;8.55;2.63;;;16.00;99.90;;;;;;5071018;28;20101;-80
2023/09/20 06:25:21;;;;;;;4.72;1.83;;;16.00;99.90;;;;;;5060323;28;20051;-81
2023/09/20 06:27:53;;;;;;;10.77;2.70;;;16.00;99.90;;;;;;5017779;28;20044;-80
2023/09/20 06:30:21;;;;;;;4.57;2.20;;;16.10;99.90;;;;;;5045708;28;20208;-81
2023/09/20 06:32:48;;;;;;;6.32;1.85;;;16.10;99.90;;;;;;5042778;28;20482;-81
2023/09/20 06:35:19;;;;;;;8.80;2.28;;;16.10;99.90;;;;;;5031970;28;20767;-81
2023/09/20 06:37:47;;;;;;;4.78;2.20;;;16.10;99.90;;;;;;5048895;28;20141;-81
2023/09/20 06:40:22;;;;;;;6.35;2.08;;;16.10;99.90;;;;;;5045789;28;20741;-80
2023/09/20 06:42:52;;;;;;;4.50;1.95;;;16.10;99.90;;;;;;5039605;28;20226;-80
2023/09/20 06:45:22;;;;;;;6.63;2.25;;;16.10;99.90;;;;;;5038639;28;20052;-81
2023/09/20 06:47:48;;;;;;;6.00;2.45;;;16.00;99.90;;;;;;5024874;28;20144;-81
2023/09/20 06:50:13;;;;;;;4.45;2.30;;;16.00;99.90;;;;;;5027248;28;20116;-80
2023/09/20 06:52:42;;;;;;;5.07;1.90;;;16.00;99.90;;;;;;5014259;28;20483;-81
2023/09/20 06:55:13;;;;;;;5.55;2.15;;;16.10;99.90;;;;;;5026331;28;20040;-80
2023/09/20 06:57:40;;;;;;;6.32;2.20;;;16.10;99.90;;;;;;5022947;28;20041;-80
2023/09/20 07:00:15;;;;;;;4.00;1.80;;;16.10;99.90;;;;;;5024870;28;20044;-81
2023/09/20 07:02:41;;;;;;;6.65;1.98;;;16.10;99.90;;;;;;5022144;28;20077;-81
2023/09/20 07:05:07;;;;;;;5.13;2.05;;;16.10;99.90;;;;;;5010499;28;20506;-80
2023/09/20 07:07:32;;;;;;;3.20;1.85;;;16.20;99.90;;;;;;5009526;28;20083;-81
2023/09/20 07:09:59;;;;;;;6.07;2.50;;;16.20;99.90;;;;;;5005283;28;20033;-80
2023/09/20 07:12:25;;;;;;;5.43;2.05;;;16.20;99.90;;;;;;5002311;28;20037;-80
2023/09/20 07:14:51;;;;;;;6.38;2.13;;;16.30;99.90;;;;;;5030133;28;20041;-80
2023/09/20 07:17:17;;;;;;;8.40;2.35;;;16.30;99.90;;;;;;5030041;28;20123;-80
2023/09/20 07:19:47;;;;;;;5.03;2.05;;;16.30;99.90;;;;;;5009613;28;20116;-78
2023/09/20 07:22:13;;;;;;;7.85;2.30;;;16.30;99.90;;;;;;5024437;28;20049;-80
2023/09/20 07:24:39;;;;;;;5.88;2.00;;;16.30;99.90;;;;;;5025441;28;20045;-80
2023/09/20 07:27:06;;;;;;;7.10;2.20;;;16.40;99.90;;;;;;5012104;28;20107;-80
2023/09/20 07:29:39;;;;;;;4.53;1.85;;;16.40;99.90;;;;;;5032866;28;20045;-80
2023/09/20 07:32:05;;;;;;;5.85;1.95;;;16.40;99.90;;;;;;5030878;28;20092;-80
2023/09/20 07:34:33;;;;;;;5.55;2.05;;;16.50;99.90;;;;;;5026871;28;20052;-80
2023/09/20 07:36:59;;;;;;;3.10;1.98;;;16.50;99.90;;;;;;5014099;28;20060;-80
2023/09/20 07:39:25;;;;;;;6.28;2.10;;;16.60;99.90;;;;;;5030023;28;20072;-80
2023/09/20 07:41:51;;;;;;;6.68;2.33;;;16.70;99.90;;;;;;5013681;28;20156;-80
2023/09/20 07:44:17;;;;;;;7.22;2.20;;;16.90;99.90;;;;;;5029615;28;20049;-80
2023/09/20 07:46:43;;;;;;;5.25;2.15;;;17.00;99.90;;;;;;5013787;28;20054;-80
2023/09/20 07:49:13;;;;;;;7.07;2.55;;;17.10;99.90;;;;;;5013558;28;20040;-79
2023/09/20 07:51:39;;;;;;;8.80;2.22;;;17.30;99.90;;;;;;5036487;28;20041;-80
2023/09/20 07:54:09;;;;;;;5.50;1.77;;;17.40;99.90;;;;;;5005828;28;20099;-75
2023/09/20 07:56:39;;;;;;;5.47;2.40;;;17.50;99.90;;;;;;5021706;28;20045;-75
2023/09/20 07:59:04;;;;;;;5.68;2.03;;;17.50;99.90;;;;;;5008974;28;20171;-75
2023/09/20 08:01:31;;;;;;;7.25;2.60;;;17.60;99.90;;;;;;5030031;28;20131;-75
2023/09/20 08:03:59;;;;;;;4.78;1.92;;;17.60;99.90;;;;;;5014338;28;20048;-75
2023/09/20 08:06:29;;;;;;;5.07;2.38;;;17.70;99.90;;;;;;5029264;28;20049;-74
2023/09/20 08:08:58;;;;;;;6.65;2.47;;;17.80;99.90;;;;;;5007532;28;20142;-73
2023/09/20 08:11:24;;;;;;;3.17;1.92;;;17.80;99.90;;;;;;5030492;28;20419;-73
2023/09/20 08:13:51;;;;;;;4.55;2.20;;;17.90;99.90;;;;;;5017808;28;20041;-73
2023/09/20 08:16:17;;;;;;;4.05;1.85;;;17.90;99.90;;;;;;5009155;28;20041;-73
2023/09/20 08:21:27;;;;;;;4.93;1.95;;;18.10;99.90;;;;;;5026482;28;20537;-73
2023/09/20 08:59:59;;;;;;;6.38;1.98;;;19.20;22.00;;;;;;5049250;28;20637;-73
2023/09/20 09:02:27;;;;;;;4.22;1.92;;;19.30;4.70;;;;;;5049126;28;20040;-73
2023/09/20 09:04:53;;;;;;;2.85;1.58;;;19.20;1.00;;;;;;5048641;28;20502;-73
2023/09/20 09:07:22;;;;;;;3.17;1.80;;;19.10;1.00;;;;;;5034890;28;20546;-73
2023/09/20 09:09:49;;;;;;;3.03;1.60;;;19.10;1.00;;;;;;5032527;28;20032;-74
2023/09/20 09:12:15;;;;;;;6.32;2.25;;;19.10;1.00;;;;;;5017802;28;20116;-74
2023/09/20 09:14:41;;;;;;;5.70;1.95;;;19.10;1.00;;;;;;5027492;28;20048;-73
2023/09/20 09:17:09;;;;;;;4.50;1.85;;;19.10;1.00;;;;;;5031433;28;20384;-73
2023/09/20 09:19:36;;;;;;;2.80;1.77;;;19.00;1.00;;;;;;5035701;28;20041;-73
2023/09/20 09:22:02;;;;;;;6.30;1.88;;;19.00;1.00;;;;;;5042295;28;20037;-74
2023/09/20 09:24:28;;;;;;;4.53;1.90;;;19.00;1.00;;;;;;5035754;28;20103;-73
2023/09/20 09:27:05;;;;;;;4.15;1.80;;;18.90;1.00;;;;;;5039365;28;20028;-74
2023/09/20 09:29:31;;;;;;;3.33;1.63;;;18.90;1.00;;;;;;5040205;28;20051;-74
2023/09/20 09:31:56;;;;;;;4.22;1.67;;;18.90;1.00;;;;;;5030619;28;20147;-73
2023/09/20 09:34:22;;;;;;;2.38;1.42;;;19.00;1.00;;;;;;5032211;28;20028;-74
2023/09/20 09:36:48;;;;;;;5.30;2.53;;;19.10;1.00;;;;;;5040967;28;20037;-75
2023/09/20 09:39:14;;;;;;;2.72;1.60;;;19.20;1.00;;;;;;5035375;28;20143;-76
2023/09/20 09:41:47;;;;;;;3.42;1.88;;;19.20;1.00;;;;;;5058937;28;20565;-76
2023/09/20 09:44:14;;;;;;;4.72;1.80;;;19.30;1.00;;;;;;5050079;28;20033;-76
2023/09/20 09:46:41;;;;;;;5.35;1.77;;;19.40;1.00;;;;;;5023368;28;20040;-76
2023/09/20 09:49:10;;;;;;;5.85;1.88;;;19.70;1.00;;;;;;5055642;28;20124;-76
2023/09/20 09:51:50;;;;;;;4.32;1.70;;;19.90;99.90;;;;;;5051772;28;20098;-76
2023/09/20 09:54:20;;;;;;;4.78;1.50;;;20.10;99.90;;;;;;5051955;28;20060;-76
2023/09/20 09:56:48;;;;;;;6.15;1.80;;;20.40;99.90;;;;;;5036018;28;20055;-75
2023/09/20 09:59:14;;;;;;;3.53;1.80;;;20.50;99.90;;;;;;5068524;28;20122;-77
2023/09/20 10:01:41;;;;;;;3.25;1.50;;;20.60;99.90;;;;;;5055758;28;20101;-76
2023/09/20 10:04:10;;;;;;;2.80;1.52;;;20.40;99.90;;;;;;5033863;28;20044;-77
2023/09/20 10:06:53;;;;;;;4.80;1.80;;;20.20;99.90;;;;;;5060646;28;20068;-76
2023/09/20 10:09:24;;;;;;;2.58;1.30;;;20.10;99.90;;;;;;5035599;28;20451;-76
2023/09/20 10:11:51;;;;;;;4.00;1.90;;;20.10;99.90;;;;;;5035746;28;20479;-77
2023/09/20 10:14:19;;;;;;;3.42;1.20;;;20.10;1.00;;;;;;5053008;28;20052;-76
2023/09/20 10:16:46;;;;;;;2.90;1.40;;;20.10;99.90;;;;;;5040404;28;20036;-76
2023/09/20 10:19:15;;;;;;;5.43;1.48;;;20.10;1.00;;;;;;5035666;28;20048;-76
2023/09/20 10:22:09;;;;;;;3.35;1.48;;;20.10;99.90;;;;;;5053197;28;20396;-75
2023/09/20 10:24:47;;;;;;;3.00;1.33;;;20.10;99.90;;;;;;5051869;28;20447;-75
2023/09/20 10:27:22;;;;;;;2.60;1.08;;;20.20;99.90;;;;;;5052109;28;20510;-76
2023/09/20 10:30:11;;;;;;;3.35;1.10;;;20.20;99.90;;;;;;5051447;28;20032;-75
2023/09/20 10:32:38;;;;;;;2.67;1.20;;;20.30;99.90;;;;;;5037290;28;20048;-77
2023/09/20 10:35:27;;;;;;;6.95;2.28;;;20.40;99.90;;;;;;5048595;28;20417;-75
2023/09/20 10:38:21;;;;;;;3.53;1.10;;;20.50;1.00;;;;;;5049552;28;20085;-76
2023/09/20 10:40:55;;;;;;;2.13;1.10;;;20.50;1.00;;;;;;5040028;28;20056;-78
2023/09/20 10:43:25;;;;;;;3.88;1.10;;;20.60;99.90;;;;;;5046699;28;20068;-76
2023/09/20 10:45:54;;;;;;;3.92;1.35;;;20.70;99.90;;;;;;5038053;28;20422;-76
2023/09/20 10:48:24;;;;;;;2.97;1.27;;;20.70;99.90;;;;;;5049356;28;20518;-77
2023/09/20 10:50:53;;;;;;;3.30;1.20;;;20.70;99.90;;;;;;5032125;28;20045;-76
2023/09/20 10:53:22;;;;;;;4.28;1.60;;;20.70;99.90;;;;;;5039104;28;20044;-77
2023/09/20 10:55:49;;;;;;;2.55;1.20;;;20.70;99.90;;;;;;5047574;28;20110;-77
2023/09/20 10:58:18;;;;;;;3.25;1.30;;;20.50;99.90;;;;;;5039285;28;20053;-77
2023/09/20 11:00:44;;;;;;;3.45;1.20;;;20.40;99.90;;;;;;5050679;28;20454;-76
2023/09/20 11:03:11;;;;;;;1.35;1.00;;;20.40;99.90;;;;;;5033886;28;20422;-77
2023/09/20 11:05:38;;;;;;;2.92;1.30;;;20.50;99.90;;;;;;5033563;28;20564;-76
2023/09/20 11:08:11;;;;;;;2.78;1.15;;;20.40;99.90;;;;;;5050086;28;20033;-77
2023/09/20 11:10:40;;;;;;;3.28;1.10;;;20.40;99.90;;;;;;5029565;28;20059;-77
2023/09/20 11:13:10;;;;;;;2.17;1.35;;;20.40;99.90;;;;;;5046997;28;20451;-78
2023/09/20 11:15:41;;;;;;;3.03;1.10;;;20.50;99.90;;;;;;5045685;28;20743;-77
2023/09/20 11:18:14;;;;;;;2.55;1.08;;;20.50;99.90;;;;;;5049202;28;20080;-78
2023/09/20 11:20:42;;;;;;;4.00;1.08;;;20.40;99.90;;;;;;5045495;28;20557;-78
2023/09/20 11:23:09;;;;;;;7.60;1.90;;;20.50;99.90;;;;;;5035847;28;20036;-78
2023/09/20 11:25:35;;;;;;;2.35;1.00;;;20.50;99.90;;;;;;5045281;28;20099;-78
2023/09/20 11:28:01;;;;;;;2.83;1.15;;;20.60;99.90;;;;;;5048247;28;20049;-79
2023/09/20 11:30:27;;;;;;;4.03;1.20;;;20.60;99.90;;;;;;5028782;28;20037;-77
2023/09/20 11:32:54;;;;;;;3.30;1.55;;;20.60;99.90;;;;;;5046564;28;20059;-79
2023/09/20 11:35:38;;;;;;;2.25;1.27;;;20.70;99.90;;;;;;5045166;28;20041;-78
2023/09/20 11:38:05;;;;;;;1.77;1.10;;;20.80;99.90;;;;;;5048100;28;20056;-78
2023/09/20 11:40:32;;;;;;;3.20;1.02;;;20.90;99.90;;;;;;5030291;28;20131;-77
2023/09/20 11:42:58;;;;;;;3.58;1.17;;;21.00;99.90;;;;;;5048547;28;20051;-77
2023/09/20 11:45:25;;;;;;;2.90;1.25;;;21.10;96.30;;;;;;5045942;28;20048;-78
2023/09/20 11:47:51;;;;;;;4.00;1.20;;;21.00;99.90;;;;;;5034072;28;20036;-79
2023/09/20 11:50:17;;;;;;;2.83;1.40;;;21.20;99.90;;;;;;5046594;28;20040;-78
2023/09/20 11:52:47;;;;;;;3.70;1.48;;;21.20;17.30;;;;;;5049558;28;20040;-77
2023/09/20 11:55:14;;;;;;;3.72;1.85;;;21.30;1.00;;;;;;5050265;28;20558;-78
2023/09/20 11:57:46;;;;;;;4.07;1.42;;;21.30;1.00;;;;;;5049938;28;20037;-79
2023/09/20 12:00:17;;;;;;;3.80;1.50;;;21.40;1.00;;;;;;5049878;28;20079;-78
2023/09/20 12:02:43;;;;;;;2.90;1.08;;;21.70;1.00;;;;;;5033844;28;20094;-78
2023/09/20 12:05:08;;;;;;;5.47;1.83;;;22.00;1.00;;;;;;5050205;28;20246;-78
2023/09/20 12:07:34;;;;;;;2.47;1.27;;;22.80;1.00;;;;;;5033496;28;20099;-78
2023/09/20 12:10:00;;;;;;;4.07;1.25;;;24.00;99.90;;;;;;5021380;28;20048;-79
2023/09/20 12:12:27;;;;;;;4.22;1.60;;;24.40;99.90;;;;;;5050178;28;20410;-78
2023/09/20 12:14:53;;;;;;;3.47;1.55;;;24.40;99.90;;;;;;5049632;28;20119;-76
2023/09/20 12:17:19;;;;;;;3.15;1.48;;;24.20;99.90;;;;;;5030089;28;20040;-77
2023/09/20 12:19:44;;;;;;;4.00;1.70;;;24.00;99.90;;;;;;5045989;28;20728;-76
2023/09/20 12:22:10;;;;;;;2.65;1.58;;;24.20;99.90;;;;;;5045181;28;20132;-77
2023/09/20 12:24:36;;;;;;;4.22;2.17;;;24.50;99.90;;;;;;5032296;28;20067;-76
2023/09/20 12:27:05;;;;;;;5.40;1.80;;;24.50;99.90;;;;;;5049375;28;20041;-76
2023/09/20 12:29:31;;;;;;;4.40;1.90;;;24.40;99.90;;;;;;5027606;28;20621;-76
2023/09/20 12:31:56;;;;;;;4.30;1.52;;;24.50;99.90;;;;;;5047684;28;20047;-78
2023/09/20 12:34:22;;;;;;;4.75;2.60;;;24.60;99.90;;;;;;5034750;28;20044;-77
2023/09/20 12:36:48;;;;;;;4.07;1.50;;;25.20;99.90;;;;;;5046351;28;20048;-76
2023/09/20 12:39:16;;;;;;;3.38;1.58;;;25.60;40.30;;;;;;5048417;28;20055;-77
2023/09/20 12:41:42;;;;;;;5.82;1.63;;;25.80;1.00;;;;;;5013731;28;20045;-77
2023/09/20 12:44:09;;;;;;;5.28;1.80;;;26.00;1.00;;;;;;5029638;28;20049;-77
2023/09/20 12:46:36;;;;;;;3.35;1.58;;;25.90;1.00;;;;;;5010124;28;20045;-77
2023/09/20 12:49:04;;;;;;;4.03;1.60;;;25.40;1.00;;;;;;5028776;28;20041;-77
2023/09/20 12:51:30;;;;;;;3.55;1.67;;;25.70;1.00;;;;;;5026977;28;20839;-78
2023/09/20 12:53:56;;;;;;;5.55;1.80;;;26.80;1.00;;;;;;5015134;28;20041;-77
2023/09/20 12:56:21;;;;;;;2.38;1.52;;;28.00;1.00;;;;;;5027430;28;20106;-77
2023/09/20 12:58:50;;;;;;;2.42;1.65;;;28.30;1.00;;;;;;5007047;28;20064;-77
2023/09/20 13:01:16;;;;;;;3.05;1.73;;;28.60;1.00;;;;;;5010105;28;20045;-77
2023/09/20 13:03:41;;;;;;;6.20;2.03;;;28.30;1.00;;;;;;5009979;28;20037;-78
2023/09/20 13:06:09;;;;;;;4.70;1.67;;;27.60;1.00;;;;;;5027625;28;20052;-77
2023/09/20 13:08:37;;;;;;;2.40;1.38;;;26.80;1.00;;;;;;5026677;28;20094;-77
2023/09/20 13:11:05;;;;;;;2.30;1.55;;;26.30;1.00;;;;;;5021508;28;20044;-77
2023/09/20 13:13:31;;;;;;;4.30;1.70;;;25.80;1.00;;;;;;5012899;28;20523;-77
2023/09/20 13:15:57;;;;;;;3.33;1.30;;;25.50;1.00;;;;;;5028129;28;20044;-77
2023/09/20 13:18:23;;;;;;;3.70;1.67;;;25.00;1.00;;;;;;5027447;28;20063;-77
2023/09/20 13:20:49;;;;;;;3.00;1.40;;;24.30;1.00;;;;;;5026416;28;20482;-77
2023/09/20 13:23:15;;;;;;;4.75;1.52;;;23.90;1.00;;;;;;5039083;28;20098;-77
2023/09/20 13:25:44;;;;;;;2.65;1.50;;;23.70;1.00;;;;;;5035779;28;20052;-77
2023/09/20 13:28:12;;;;;;;4.57;1.60;;;23.60;1.00;;;;;;5032918;28;20041;-77